Portada
METAR-TAF:

METAR-TAF

Aeroports :

Derby, Austràlia

latitud: 17-34-53S, longitud: 123-49-42E, altitud: 91 m

Observació

L'informe es va fer fa 20 minuts, a les 16:00 UTC
Vent 4 kt del Oest/Nord-Oest
Temperatura 25°C
Humitat 94%
Pressió 1010 hPa
Visibilitat 10 km o més

METAR: YCIN 191600Z AUTO 29004KT 9999 // NCD 25/24 Q1010

Hora: 00:20 (16:20 UTC)

Pronòstic

L'informe es va fer fa 4 hores i 6 minuts, a les 12:14 UTC
Pronòstic vàlid del 19 a les 14 UTC al 20 a les 02 UTC
Vent 5 kt del Oest
Visibilitat 10 km o més
sense núvols per sota de 1500 mi sense presència de cumulonimbus.
A partir de les 19 a les 2000 UTC
Vent 3 kt amb direcció variable
Visibilitat 10 km o més
Cel ennuvolat a una alçada de 1000 ft
A partir de les 20 a les 0000 UTC
Vent 5 kt del Nord/Nord-Oest
Visibilitat 10 km o més
sense núvols per sota de 1500 mi sense presència de cumulonimbus.

TAF: YCIN 191214Z 1914/2002 27005KT CAVOK FM192000 VRB03KT 9999 BKN010 FM200000 34005KT CAVOK

Observacions i pronòstics meteorològics de més de 4000 aeroports (METAR i TAF).

Les estacions disponibles són els punts grocs i vermells al mapa.

Posi el ratolí al punt desitjat per veure el nom de l'estació.

Feu clic per veure les observacions i els pronòstics meteorològics.

Per canviar el mapa: feu clic els botons verds amb una creu de color negre per apropar; al botó verd amb un guió per allunyar la imatge; o en les fletxes verdes per a mapes adjacents.


METAR-TAF: